Time;durP1;ratioP1;P1;durP2;ratioP2;P2;SDS_P1;SDS_P2;PMS_P1;PMS_P2;Temp;Humidity;BMP_temperature;BMP_pressure;BME280_temperature;BME280_humidity;BME280_pressure;Samples;Min_cycle;Max_cycle;Signal;HPM_P1;HPM_P2
2022/03/30 00:01:13;;;;;;;12.17;4.33;;;;;;;4.31;71.85;99689.50;5096437;28;20250;-79
2022/03/30 00:03:41;;;;;;;8.63;4.10;;;;;;;4.34;71.48;99690.34;5096503;28;20235;-77
2022/03/30 00:06:08;;;;;;;6.60;4.13;;;;;;;4.34;71.44;99689.47;5096417;28;20205;-80
2022/03/30 00:08:34;;;;;;;4.17;3.17;;;;;;;4.26;71.33;99694.72;5096843;28;20224;-79
2022/03/30 00:11:01;;;;;;;7.60;3.83;;;;;;;4.25;72.01;99684.38;5096597;28;20220;-79
2022/03/30 00:13:28;;;;;;;5.87;3.30;;;;;;;4.24;71.84;99682.66;5096451;28;20208;-80
2022/03/30 00:15:54;;;;;;;5.27;3.73;;;;;;;4.27;71.94;99678.31;5096477;28;20261;-79
2022/03/30 00:18:21;;;;;;;7.83;3.57;;;;;;;4.25;71.36;99680.06;5094323;28;20204;-79
2022/03/30 00:20:49;;;;;;;5.87;3.47;;;;;;;4.21;71.71;99685.25;5088887;28;20220;-81
2022/03/30 00:23:16;;;;;;;7.87;3.67;;;;;;;4.18;71.84;99675.78;5096320;28;20674;-80
2022/03/30 00:25:42;;;;;;;5.73;3.33;;;;;;;4.10;71.98;99674.97;5096039;28;20205;-80
2022/03/30 00:28:09;;;;;;;6.00;3.90;;;;;;;3.91;72.91;99658.72;5096351;28;20205;-81
2022/03/30 00:30:36;;;;;;;7.07;3.00;;;;;;;3.95;72.68;99655.25;5095988;28;20228;-79
2022/03/30 00:33:02;;;;;;;7.53;3.53;;;;;;;3.89;73.11;99650.13;5095959;28;20205;-79
2022/03/30 00:35:29;;;;;;;5.90;3.60;;;;;;;3.86;73.33;99648.38;5095531;28;20301;-79
2022/03/30 00:37:57;;;;;;;4.73;3.47;;;;;;;3.90;72.84;99650.09;5095809;28;20200;-80
2022/03/30 00:40:25;;;;;;;5.93;3.17;;;;;;;3.85;73.17;99644.09;5096289;28;20230;-80
2022/03/30 00:42:52;;;;;;;5.57;3.43;;;;;;;3.80;73.03;99639.81;5096091;28;20206;-80
2022/03/30 00:45:21;;;;;;;6.53;3.40;;;;;;;3.82;72.94;99651.84;5095749;28;20201;-80
2022/03/30 00:47:48;;;;;;;5.93;3.53;;;;;;;3.82;73.09;99651.00;5094350;28;20667;-80
2022/03/30 00:50:16;;;;;;;5.43;3.93;;;;;;;3.83;73.04;99637.25;5087021;28;20224;-80
2022/03/30 00:52:43;;;;;;;5.77;3.60;;;;;;;3.87;73.34;99633.78;5095645;28;20200;-80
2022/03/30 00:55:13;;;;;;;8.57;3.50;;;;;;;3.86;72.93;99640.66;5095722;28;20687;-80
2022/03/30 00:57:41;;;;;;;6.57;2.77;;;;;;;3.90;72.69;99646.66;5095261;28;20706;-79
2022/03/30 01:00:12;;;;;;;5.23;3.50;;;;;;;3.90;72.31;99644.94;5095252;28;20227;-80
2022/03/30 01:02:40;;;;;;;5.77;3.23;;;;;;;3.90;72.47;99644.06;5095628;28;20222;-80
2022/03/30 01:05:07;;;;;;;9.20;3.80;;;;;;;3.88;72.12;99654.41;5095362;28;20204;-80
2022/03/30 01:07:34;;;;;;;5.60;3.50;;;;;;;3.86;72.39;99643.22;5095770;28;20636;-80
2022/03/30 01:10:00;;;;;;;4.47;3.50;;;;;;;3.83;73.22;99634.66;5095384;28;20221;-80
2022/03/30 01:12:29;;;;;;;6.60;3.00;;;;;;;3.83;73.03;99620.03;5095655;28;20230;-80
2022/03/30 01:14:56;;;;;;;6.07;3.10;;;;;;;3.71;73.09;99627.84;5095370;28;20201;-80
2022/03/30 01:17:22;;;;;;;6.13;3.50;;;;;;;3.64;73.26;99610.66;5094553;28;20210;-79
2022/03/30 01:19:50;;;;;;;7.73;3.47;;;;;;;3.62;72.95;99607.22;5086280;28;20242;-79
2022/03/30 01:22:18;;;;;;;6.07;4.37;;;;;;;3.65;73.08;99612.34;5095392;28;20205;-80
2022/03/30 01:24:45;;;;;;;4.87;3.87;;;;;;;3.59;73.20;99602.94;5094917;28;20631;-80
2022/03/30 01:27:11;;;;;;;5.67;3.37;;;;;;;3.60;73.03;99601.19;5095408;28;20325;-80
2022/03/30 01:32:28;;;;;;;6.60;3.27;;;;;;;3.64;73.32;99592.59;5095490;28;20220;-80
2022/03/30 01:34:57;;;;;;;8.40;4.07;;;;;;;3.61;73.78;99596.03;5095640;28;20215;-80
2022/03/30 01:37:27;;;;;;;6.70;3.17;;;;;;;3.61;73.25;99588.31;5095006;28;20210;-81
2022/03/30 01:39:54;;;;;;;8.80;3.70;;;;;;;3.58;73.17;99585.72;5096400;28;20278;-80
2022/03/30 01:42:20;;;;;;;6.20;3.40;;;;;;;3.56;73.85;99577.13;5096324;28;20200;-80
2022/03/30 01:44:47;;;;;;;6.20;4.00;;;;;;;3.50;73.68;99585.75;5095516;28;20611;-80
2022/03/30 01:47:13;;;;;;;5.83;3.33;;;;;;;3.50;73.53;99567.69;5094929;28;20254;-80
2022/03/30 01:49:40;;;;;;;5.37;3.53;;;;;;;3.50;73.59;99561.69;5087185;28;20228;-81
2022/03/30 01:52:08;;;;;;;5.90;3.33;;;;;;;3.49;73.73;99560.81;5096228;28;20222;-79
2022/03/30 01:55:15;;;;;;;9.53;3.80;;;;;;;3.49;73.85;99557.38;5096403;28;20196;-80
2022/03/30 01:57:43;;;;;;;7.47;4.00;;;;;;;3.51;74.07;99547.94;5082200;28;20200;-80
2022/03/30 02:00:11;;;;;;;4.47;3.60;;;;;;;3.54;73.81;99550.47;5075931;28;20251;-80
2022/03/30 02:02:38;;;;;;;5.60;3.80;;;;;;;3.53;74.20;99546.19;5075556;28;20227;-80
2022/03/30 02:05:06;;;;;;;6.33;4.00;;;;;;;3.49;73.86;99554.78;5075875;28;20200;-80
2022/03/30 02:07:32;;;;;;;5.73;3.47;;;;;;;3.35;74.58;99545.41;5075957;28;20275;-80
2022/03/30 02:09:59;;;;;;;8.93;3.97;;;;;;;3.15;74.72;99535.16;5076101;28;20925;-80
2022/03/30 02:12:25;;;;;;;5.50;3.83;;;;;;;3.12;75.55;99508.53;5076481;28;20744;-80
2022/03/30 02:14:53;;;;;;;8.67;3.17;;;;;;;3.15;75.50;99500.78;5075670;28;20200;-80
2022/03/30 02:17:20;;;;;;;6.10;3.90;;;;;;;3.20;74.81;99493.88;5076942;28;20235;-80
2022/03/30 02:19:47;;;;;;;8.07;3.00;;;;;;;3.04;75.41;99499.97;5076707;28;20202;-80
2022/03/30 02:22:15;;;;;;;7.10;3.17;;;;;;;3.01;76.16;99482.78;5075333;28;20232;-80
2022/03/30 02:24:42;;;;;;;6.73;3.17;;;;;;;3.06;75.22;99481.06;5072976;28;20296;-79
2022/03/30 02:27:08;;;;;;;5.30;3.13;;;;;;;3.06;75.15;99482.78;5072789;28;20741;-80
2022/03/30 02:29:35;;;;;;;6.03;3.43;;;;;;;3.09;75.24;99485.31;5072732;28;20882;-80
2022/03/30 02:32:03;;;;;;;5.80;2.70;;;;;;;3.08;75.25;99483.63;5072322;28;20594;-80
2022/03/30 02:34:30;;;;;;;3.53;2.53;;;;;;;3.10;75.38;99476.75;5071884;28;20733;-80
2022/03/30 02:36:56;;;;;;;8.87;3.23;;;;;;;3.11;74.95;99486.19;5072781;28;20205;-80
2022/03/30 02:39:22;;;;;;;4.30;2.73;;;;;;;3.14;75.09;99475.88;5072141;28;20202;-80
2022/03/30 02:41:49;;;;;;;4.87;3.10;;;;;;;3.15;74.91;99485.28;5072220;28;20278;-80
2022/03/30 02:44:15;;;;;;;8.57;4.83;;;;;;;3.11;75.15;99484.47;5072226;28;20205;-80
2022/03/30 02:46:42;;;;;;;6.87;4.07;;;;;;;3.14;75.13;99488.75;5072076;28;20212;-80
2022/03/30 02:49:10;;;;;;;7.73;3.40;;;;;;;3.11;75.04;99481.91;5072161;28;20201;-79
2022/03/30 02:51:38;;;;;;;3.80;3.00;;;;;;;3.11;74.82;99481.91;5072442;28;20224;-79
2022/03/30 02:54:05;;;;;;;4.80;3.67;;;;;;;3.11;74.58;99479.31;5071404;28;20300;-80
2022/03/30 02:56:31;;;;;;;9.07;3.47;;;;;;;2.93;75.84;99480.25;5074959;28;20215;-80
2022/03/30 02:58:58;;;;;;;6.20;3.70;;;;;;;2.77;76.36;99461.41;5087075;28;20596;-79
2022/03/30 03:01:24;;;;;;;7.03;4.20;;;;;;;2.69;76.38;99446.81;5084691;28;20271;-79
2022/03/30 03:03:51;;;;;;;5.00;3.70;;;;;;;2.59;77.00;99421.06;5095780;28;20632;-79
2022/03/30 03:06:18;;;;;;;7.70;3.97;;;;;;;2.53;76.95;99415.09;5095598;28;20216;-80
2022/03/30 03:08:45;;;;;;;5.17;3.40;;;;;;;2.52;77.94;99398.78;5096068;28;20262;-80
2022/03/30 03:11:11;;;;;;;4.47;3.60;;;;;;;2.50;77.76;99397.09;5095878;28;20224;-80
2022/03/30 03:13:37;;;;;;;6.03;4.37;;;;;;;2.50;77.04;99397.94;5096068;28;20200;-79
2022/03/30 03:16:05;;;;;;;9.53;4.80;;;;;;;2.49;77.48;99393.63;5096141;28;20208;-80
2022/03/30 03:18:31;;;;;;;5.63;3.77;;;;;;;2.51;77.05;99384.19;5095981;28;20218;-80
2022/03/30 03:20:58;;;;;;;10.33;4.47;;;;;;;2.53;77.55;99384.19;5095490;28;20270;-80
2022/03/30 03:23:26;;;;;;;9.90;4.50;;;;;;;2.57;76.77;99388.47;5096045;28;20204;-80
2022/03/30 03:25:53;;;;;;;5.80;4.73;;;;;;;2.53;77.17;99387.59;5095839;28;20577;-80
2022/03/30 03:28:20;;;;;;;9.43;4.80;;;;;;;2.57;77.51;99383.31;5086317;28;20200;-79
2022/03/30 03:30:46;;;;;;;10.10;4.90;;;;;;;2.65;77.48;99383.28;5087317;28;20220;-80
2022/03/30 03:33:15;;;;;;;9.20;4.80;;;;;;;2.67;77.13;99378.97;5086281;28;20201;-80
2022/03/30 03:35:41;;;;;;;7.17;4.90;;;;;;;2.74;76.86;99378.94;5071766;28;20196;-79
2022/03/30 03:38:08;;;;;;;6.77;4.90;;;;;;;2.75;76.73;99380.66;5074354;28;20733;-80
2022/03/30 03:40:37;;;;;;;7.63;4.80;;;;;;;2.82;77.01;99378.91;5074210;28;20221;-79
2022/03/30 03:43:05;;;;;;;6.73;3.80;;;;;;;2.73;76.68;99377.22;5072012;28;20205;-79
2022/03/30 03:45:32;;;;;;;7.87;4.37;;;;;;;2.60;77.10;99388.47;5074561;28;20255;-79
2022/03/30 03:47:58;;;;;;;4.73;3.77;;;;;;;2.49;77.28;99374.75;5074283;28;20683;-80
2022/03/30 03:50:26;;;;;;;5.93;3.70;;;;;;;2.45;77.15;99361.03;5074258;28;20225;-79
2022/03/30 03:52:53;;;;;;;5.93;3.77;;;;;;;2.44;77.60;99346.44;5074257;28;20675;-79
2022/03/30 03:55:19;;;;;;;9.50;3.63;;;;;;;2.28;78.35;99337.91;5073928;28;20201;-79
2022/03/30 03:57:47;;;;;;;4.30;3.23;;;;;;;2.35;78.86;99313.00;5073903;28;20197;-79
2022/03/30 04:00:14;;;;;;;6.03;2.80;;;;;;;2.30;79.57;99295.00;5073800;28;20228;-79
2022/03/30 04:02:41;;;;;;;8.60;3.47;;;;;;;2.32;79.62;99282.97;5071370;28;20548;-79
2022/03/30 04:05:09;;;;;;;5.57;3.40;;;;;;;2.35;80.04;99270.06;5075253;28;20197;-80
2022/03/30 04:07:37;;;;;;;4.53;3.17;;;;;;;2.35;80.87;99257.19;5075612;28;20208;-79
2022/03/30 04:10:05;;;;;;;6.53;3.07;;;;;;;2.41;80.48;99250.31;5075825;28;20205;-80
2022/03/30 04:12:32;;;;;;;5.50;3.53;;;;;;;2.45;79.88;99249.44;5075525;28;20209;-79
2022/03/30 04:15:00;;;;;;;5.93;3.13;;;;;;;2.50;79.90;99256.28;5076321;28;20612;-80
2022/03/30 04:17:26;;;;;;;8.80;3.37;;;;;;;2.48;81.13;99239.09;5075043;28;20209;-79
2022/03/30 04:19:53;;;;;;;8.03;3.00;;;;;;;2.57;80.90;99223.59;5075825;28;20236;-80
2022/03/30 04:22:19;;;;;;;6.13;3.07;;;;;;;2.57;82.07;99205.56;5076061;28;20205;-79
2022/03/30 04:24:45;;;;;;;5.60;3.37;;;;;;;2.59;81.73;99201.25;5080194;28;20258;-79
2022/03/30 04:27:12;;;;;;;6.50;3.27;;;;;;;2.67;81.83;99193.47;5075390;28;20208;-80
2022/03/30 04:29:39;;;;;;;5.80;3.90;;;;;;;2.70;81.49;99191.75;5083469;28;20197;-80
2022/03/30 04:32:08;;;;;;;5.33;4.13;;;;;;;2.61;82.24;99185.81;5090602;28;20266;-79
2022/03/30 04:34:34;;;;;;;5.13;3.20;;;;;;;2.66;82.35;99178.91;5095031;28;20698;-79
2022/03/30 04:37:00;;;;;;;6.93;4.20;;;;;;;2.65;82.88;99177.19;5095660;28;20267;-79
2022/03/30 04:39:27;;;;;;;6.40;4.37;;;;;;;2.73;81.82;99181.41;5095599;28;20213;-79
2022/03/30 04:41:53;;;;;;;5.33;4.57;;;;;;;2.87;80.88;99201.91;5095261;28;20231;-78
2022/03/30 04:44:21;;;;;;;8.57;5.43;;;;;;;2.96;80.90;99230.19;5094826;28;20674;-79
2022/03/30 04:46:47;;;;;;;10.77;6.47;;;;;;;3.02;79.87;99242.19;5095242;28;20204;-79
2022/03/30 04:49:15;;;;;;;10.50;6.70;;;;;;;3.03;79.46;99254.19;5095845;28;20200;-80
2022/03/30 04:51:42;;;;;;;14.17;6.17;;;;;;;3.03;79.77;99261.09;5095236;28;20277;-80
2022/03/30 04:54:09;;;;;;;14.77;6.80;;;;;;;3.03;79.03;99268.81;5088421;28;20212;-80
2022/03/30 04:56:35;;;;;;;9.07;5.87;;;;;;;3.03;79.36;99274.81;5085876;28;20226;-80
2022/03/30 04:59:02;;;;;;;7.53;5.77;;;;;;;2.96;78.91;99276.59;5094698;28;20208;-80
2022/03/30 05:01:29;;;;;;;9.77;5.83;;;;;;;2.91;78.65;99282.66;5103222;22;20241;-80
2022/03/30 05:03:55;;;;;;;8.90;6.23;;;;;;;2.81;79.32;99278.41;5070970;28;20201;-84
2022/03/30 05:06:23;;;;;;;8.00;5.67;;;;;;;2.71;79.34;99267.31;5076326;28;20205;-85
2022/03/30 05:08:49;;;;;;;6.73;5.60;;;;;;;2.67;79.30;99250.16;5077034;28;20254;-84
2022/03/30 05:11:16;;;;;;;7.23;5.07;;;;;;;2.68;80.25;99252.72;5070647;28;20226;-84
2022/03/30 05:13:42;;;;;;;7.37;5.60;;;;;;;2.58;79.95;99235.63;5056946;28;20209;-81
2022/03/30 05:16:08;;;;;;;8.23;5.23;;;;;;;2.65;80.79;99223.56;5056742;28;20726;-83
2022/03/30 05:18:35;;;;;;;11.80;6.57;;;;;;;2.66;80.39;99218.41;5056073;28;20684;-85
2022/03/30 05:21:01;;;;;;;8.03;5.93;;;;;;;2.67;80.13;99235.56;5056540;28;20237;-85
2022/03/30 05:23:29;;;;;;;7.47;5.57;;;;;;;2.78;79.43;99256.09;5056781;28;20213;-83
2022/03/30 05:25:55;;;;;;;9.20;6.43;;;;;;;2.81;79.47;99268.09;5056677;28;20572;-84
2022/03/30 05:28:22;;;;;;;8.33;6.23;;;;;;;2.82;78.79;99265.53;5056593;28;20671;-85
2022/03/30 05:30:48;;;;;;;11.63;6.23;;;;;;;2.73;78.58;99283.63;5056996;28;20202;-85
2022/03/30 05:33:15;;;;;;;12.37;6.70;;;;;;;2.58;79.08;99289.72;5056820;28;20205;-83
2022/03/30 05:35:41;;;;;;;8.43;6.03;;;;;;;2.53;79.45;99258.81;5048555;28;20220;-83
2022/03/30 05:38:08;;;;;;;11.70;6.07;;;;;;;2.45;79.35;99259.72;5056581;28;20202;-84
2022/03/30 05:40:35;;;;;;;8.57;5.83;;;;;;;2.41;78.86;99258.03;5055814;28;20229;-83
2022/03/30 05:43:02;;;;;;;8.13;6.37;;;;;;;2.53;78.76;99263.97;5055257;28;20204;-83
2022/03/30 05:45:29;;;;;;;6.77;6.10;;;;;;;2.65;77.79;99293.97;5056070;28;20208;-83
2022/03/30 05:47:55;;;;;;;12.40;6.20;;;;;;;2.64;77.04;99315.44;5056048;28;20200;-84
2022/03/30 05:50:23;;;;;;;9.80;6.33;;;;;;;2.63;77.16;99318.88;5056269;28;20197;-83
2022/03/30 05:52:49;;;;;;;7.07;6.30;;;;;;;2.57;77.58;99314.59;5056605;28;20221;-83
2022/03/30 05:55:16;;;;;;;11.77;6.90;;;;;;;2.47;77.94;99294.06;5055639;28;20558;-80
2022/03/30 05:57:44;;;;;;;7.20;5.80;;;;;;;2.50;78.28;99278.59;5056690;28;20205;-82
2022/03/30 06:00:12;;;;;;;10.93;6.80;;;;;;;2.45;79.04;99270.03;5055647;28;20241;-80
2022/03/30 06:02:38;;;;;;;9.33;6.77;;;;;;;2.39;79.66;99270.91;5054201;28;20233;-80
2022/03/30 06:05:05;;;;;;;6.77;6.17;;;;;;;2.46;79.70;99257.16;5056436;28;20214;-81
2022/03/30 06:07:32;;;;;;;10.33;7.40;;;;;;;2.52;80.08;99254.53;5056289;28;20259;-81
2022/03/30 06:09:58;;;;;;;7.13;6.40;;;;;;;2.59;79.43;99237.31;5055651;28;20252;-80
2022/03/30 06:12:25;;;;;;;8.77;6.67;;;;;;;2.59;79.78;99242.47;5055190;28;20218;-81
2022/03/30 06:14:53;;;;;;;12.27;6.70;;;;;;;2.70;79.52;99245.84;5055985;28;20205;-81
2022/03/30 06:17:20;;;;;;;12.33;9.40;;;;;;;2.83;79.77;99256.91;5055949;28;20201;-82
2022/03/30 06:19:49;;;;;;;11.23;9.83;;;;;;;2.82;79.20;99256.94;5055218;28;20255;-80
2022/03/30 06:22:16;;;;;;;21.97;16.33;;;;;;;2.83;79.81;99248.34;5055650;28;20233;-81
2022/03/30 06:24:42;;;;;;;25.47;14.60;;;;;;;2.94;79.36;99254.28;5055711;28;20198;-81
2022/03/30 06:27:10;;;;;;;18.00;12.00;;;;;;;3.01;79.58;99255.09;5055455;28;20691;-81
2022/03/30 06:29:37;;;;;;;15.00;13.40;;;;;;;3.14;79.30;99259.28;5056414;28;20209;-82
2022/03/30 06:32:07;;;;;;;16.10;14.40;;;;;;;3.28;79.79;99252.28;5057500;28;20233;-82
2022/03/30 06:34:35;;;;;;;16.47;11.60;;;;;;;3.43;78.18;99279.69;5059608;28;20201;-82
2022/03/30 06:37:02;;;;;;;15.37;12.80;;;;;;;3.54;77.62;99300.22;5061814;28;20241;-82
2022/03/30 06:39:28;;;;;;;12.60;11.30;;;;;;;3.66;77.27;99323.31;5061377;28;20560;-79
2022/03/30 06:41:56;;;;;;;10.23;9.20;;;;;;;3.74;76.78;99337.00;5059021;28;20233;-80
2022/03/30 06:44:22;;;;;;;11.03;8.00;;;;;;;3.80;76.60;99336.09;5057893;28;20206;-79
2022/03/30 06:46:48;;;;;;;10.30;7.77;;;;;;;3.80;76.88;99341.25;5057825;28;20591;-80
2022/03/30 06:49:16;;;;;;;11.10;8.00;;;;;;;3.84;77.13;99321.44;5059063;28;20676;-79
2022/03/30 06:51:42;;;;;;;9.87;7.73;;;;;;;3.85;77.24;99318.00;5058880;28;20225;-79
2022/03/30 06:54:09;;;;;;;12.93;9.40;;;;;;;3.87;76.60;99322.28;5056416;28;20302;-79
2022/03/30 06:56:35;;;;;;;10.07;9.07;;;;;;;3.93;76.86;99332.53;5058913;28;20206;-81
2022/03/30 06:59:01;;;;;;;14.67;12.13;;;;;;;3.96;76.47;99340.25;5058924;28;20734;-82
2022/03/30 07:01:28;;;;;;;12.03;10.63;;;;;;;4.03;76.17;99342.78;5058089;28;20230;-80
2022/03/30 07:03:54;;;;;;;20.43;11.60;;;;;;;4.04;76.49;99355.66;5058164;28;20252;-81
2022/03/30 07:06:22;;;;;;;18.87;12.10;;;;;;;4.03;76.10;99359.13;5058123;28;20624;-81
2022/03/30 07:11:33;;;;;;;11.77;10.57;;;;;;;3.97;76.54;99361.78;5058483;28;20244;-80
2022/03/30 07:13:59;;;;;;;19.87;10.90;;;;;;;3.93;76.77;99342.00;5057981;28;20209;-81
2022/03/30 07:16:26;;;;;;;17.80;11.83;;;;;;;3.88;77.27;99333.44;5057279;28;20205;-82
2022/03/30 07:18:53;;;;;;;13.23;11.77;;;;;;;3.85;77.75;99320.59;5057204;28;20760;-81
2022/03/30 07:21:21;;;;;;;19.00;11.07;;;;;;;3.82;77.52;99311.13;5057515;28;20225;-82
2022/03/30 07:23:48;;;;;;;17.00;12.00;;;;;;;3.84;78.20;99301.63;5057326;28;20201;-82
2022/03/30 07:26:14;;;;;;;15.03;10.87;;;;;;;3.85;78.98;99298.19;5056887;28;20222;-81
2022/03/30 07:28:41;;;;;;;17.77;11.53;;;;;;;3.88;78.40;99287.84;5057328;28;20236;-81
2022/03/30 07:31:07;;;;;;;14.77;11.20;;;;;;;3.94;79.01;99287.78;5057131;28;20233;-81
2022/03/30 07:33:33;;;;;;;19.03;11.80;;;;;;;3.98;79.20;99268.81;5061689;28;20215;-80
2022/03/30 07:36:00;;;;;;;13.63;10.70;;;;;;;4.09;80.26;99242.00;5068819;28;20210;-81
2022/03/30 07:38:28;;;;;;;18.43;10.07;;;;;;;4.15;78.79;99266.03;5066080;28;20193;-82
2022/03/30 07:40:55;;;;;;;14.50;9.43;;;;;;;4.16;77.74;99301.31;5067123;28;20738;-80
2022/03/30 07:43:22;;;;;;;10.60;8.60;;;;;;;4.20;77.49;99307.28;5066481;28;20667;-81
2022/03/30 07:45:49;;;;;;;18.37;9.40;;;;;;;4.26;77.72;99312.41;5062208;28;20202;-81
2022/03/30 07:48:15;;;;;;;17.00;10.50;;;;;;;4.35;77.92;99299.34;5071820;28;20209;-81
2022/03/30 07:50:42;;;;;;;18.77;10.83;;;;;;;4.45;78.21;99289.78;5077240;28;20250;-81
2022/03/30 07:53:08;;;;;;;13.03;9.27;;;;;;;4.48;77.99;99282.00;5077365;28;20205;-81
2022/03/30 07:55:38;;;;;;;12.03;8.60;;;;;;;4.60;77.43;99287.84;5077238;28;20205;-80
2022/03/30 07:58:05;;;;;;;10.50;8.53;;;;;;;4.72;76.16;99314.41;5077078;28;20415;-81
2022/03/30 08:00:31;;;;;;;12.83;7.60;;;;;;;4.79;75.93;99328.09;5076805;28;20671;-80
2022/03/30 08:02:58;;;;;;;10.97;8.07;;;;;;;4.93;74.86;99359.78;5076233;28;20229;-80
2022/03/30 08:05:25;;;;;;;11.23;7.83;;;;;;;5.00;74.65;99381.25;5077349;28;20273;-79
2022/03/30 08:07:51;;;;;;;11.27;8.00;;;;;;;5.08;74.50;99384.59;5077006;28;20197;-81
2022/03/30 08:10:18;;;;;;;10.93;7.77;;;;;;;5.20;73.55;99403.41;5060406;28;20204;-80
2022/03/30 08:12:47;;;;;;;15.17;7.00;;;;;;;5.28;72.49;99432.63;5057617;28;20228;-80
2022/03/30 08:15:14;;;;;;;10.63;6.27;;;;;;;5.38;72.33;99454.91;5059715;28;20292;-79
2022/03/30 08:17:40;;;;;;;11.17;6.90;;;;;;;5.47;71.27;99467.72;5059471;28;20224;-79
2022/03/30 08:20:08;;;;;;;6.70;5.97;;;;;;;5.56;70.90;99483.09;5058745;28;20193;-82
2022/03/30 08:22:34;;;;;;;10.10;6.20;;;;;;;5.62;69.92;99507.22;5056474;28;20275;-81
2022/03/30 08:25:03;;;;;;;12.43;5.73;;;;;;;5.69;69.49;99521.75;5055953;28;20205;-80
2022/03/30 08:27:31;;;;;;;9.60;6.00;;;;;;;5.77;69.15;99535.50;5055895;28;20198;-80
2022/03/30 08:29:59;;;;;;;8.17;5.10;;;;;;;5.84;68.53;99533.66;5056618;28;20213;-79
2022/03/30 08:32:27;;;;;;;7.03;4.37;;;;;;;5.91;66.92;99577.59;5056471;28;20228;-80
2022/03/30 08:34:56;;;;;;;8.90;4.50;;;;;;;6.01;66.97;99626.72;5055532;28;20251;-80
2022/03/30 08:37:23;;;;;;;12.27;5.13;;;;;;;6.09;65.49;99650.78;5055679;28;20217;-80
2022/03/30 08:39:51;;;;;;;16.63;4.90;;;;;;;6.18;65.79;99657.56;5056477;28;20204;-81
2022/03/30 08:42:19;;;;;;;7.67;4.87;;;;;;;6.24;65.64;99655.72;5055585;28;20657;-80
2022/03/30 08:44:47;;;;;;;8.67;4.90;;;;;;;6.25;65.86;99648.84;5057118;28;20256;-81
2022/03/30 08:47:15;;;;;;;10.27;4.93;;;;;;;6.39;65.15;99656.41;5056816;28;20260;-82
2022/03/30 08:49:44;;;;;;;7.63;5.30;;;;;;;6.48;64.57;99682.19;5055859;28;20206;-82
2022/03/30 08:52:12;;;;;;;9.43;4.83;;;;;;;6.59;64.47;99679.44;5056736;28;20290;-81
2022/03/30 08:54:43;;;;;;;8.90;5.57;;;;;;;6.66;64.24;99692.31;5055874;28;20207;-82
2022/03/30 08:57:09;;;;;;;8.03;5.67;;;;;;;6.78;65.47;99682.59;5056605;28;20692;-81
2022/03/30 08:59:35;;;;;;;11.33;5.90;;;;;;;6.81;64.25;99690.34;5056776;28;20210;-81
2022/03/30 09:02:02;;;;;;;10.23;4.43;;;;;;;6.86;64.14;99686.81;5056174;28;20649;-81
2022/03/30 09:04:30;;;;;;;7.90;4.80;;;;;;;6.85;63.37;99721.41;5055439;28;20206;-82
2022/03/30 09:06:58;;;;;;;8.80;4.93;;;;;;;6.93;63.30;99731.66;5056103;28;20214;-81
2022/03/30 09:09:30;;;;;;;7.97;5.00;;;;;;;6.90;62.68;99753.31;5055961;28;20243;-80
2022/03/30 09:11:59;;;;;;;9.40;4.07;;;;;;;6.93;62.26;99760.19;5055941;28;20243;-81
2022/03/30 09:14:28;;;;;;;6.43;4.00;;;;;;;6.96;62.92;99742.84;5055305;28;20628;-81
2022/03/30 09:16:57;;;;;;;8.40;3.90;;;;;;;7.04;62.44;99744.47;5055926;28;20644;-80
2022/03/30 09:19:24;;;;;;;6.50;3.40;;;;;;;7.12;62.72;99753.00;5055831;28;20205;-81
2022/03/30 09:21:54;;;;;;;6.20;3.50;;;;;;;7.19;61.66;99772.75;5055789;28;20283;-81
2022/03/30 09:24:23;;;;;;;7.57;4.23;;;;;;;7.29;60.93;99795.09;5055952;28;20292;-81
2022/03/30 09:26:51;;;;;;;7.57;4.10;;;;;;;7.42;60.35;99806.16;5055724;28;20618;-81
2022/03/30 09:29:19;;;;;;;6.10;3.73;;;;;;;7.47;60.20;99816.44;5056200;28;20244;-81
2022/03/30 09:31:48;;;;;;;9.07;3.50;;;;;;;7.33;59.37;99848.72;5055280;28;20226;-81
2022/03/30 09:34:15;;;;;;;6.80;3.53;;;;;;;7.36;61.98;99781.13;5054586;28;20218;-83
2022/03/30 09:36:43;;;;;;;5.00;3.07;;;;;;;7.41;62.07;99765.47;5055849;28;20211;-81
2022/03/30 09:39:29;;;;;;;9.40;3.90;;;;;;;7.54;59.49;99810.28;5055663;28;20207;-81
2022/03/30 09:41:58;;;;;;;8.13;4.00;;;;;;;7.61;59.78;99831.81;5056138;28;20229;-82
2022/03/30 09:44:27;;;;;;;8.20;4.03;;;;;;;7.68;58.91;99842.06;5055617;28;20219;-81
2022/03/30 09:46:55;;;;;;;10.50;4.60;;;;;;;7.78;59.53;99852.31;5055044;28;20635;-80
2022/03/30 09:49:33;;;;;;;10.27;4.93;;;;;;;7.88;59.52;99788.91;5055095;28;20208;-81
2022/03/30 09:51:59;;;;;;;13.77;5.40;;;;;;;7.88;58.25;99844.31;5055012;28;20226;-81
2022/03/30 09:54:41;;;;;;;6.43;5.50;;;;;;;7.89;58.02;99874.63;5054939;28;20833;-79
2022/03/30 09:57:13;;;;;;;11.23;6.70;;;;;;;7.88;58.12;99888.50;5054727;28;20210;-81
2022/03/30 10:00:02;;;;;;;11.83;6.37;;;;;;;7.76;57.86;99896.50;5054628;28;20353;-82
2022/03/30 10:02:32;;;;;;;12.00;6.63;;;;;;;7.73;58.25;99883.56;5054162;28;20232;-81
2022/03/30 10:04:59;;;;;;;8.83;6.33;;;;;;;7.77;58.17;99877.44;5054283;28;20596;-82
2022/03/30 10:07:28;;;;;;;9.67;6.67;;;;;;;7.82;58.19;99879.97;5056853;28;20213;-80
2022/03/30 10:09:56;;;;;;;6.93;5.37;;;;;;;7.83;56.52;99885.13;5059448;28;20237;-80
2022/03/30 10:12:24;;;;;;;7.03;5.27;;;;;;;7.75;56.72;99902.59;5057982;28;20212;-81
2022/03/30 10:14:55;;;;;;;8.83;5.50;;;;;;;7.74;57.33;99893.94;5058536;28;20708;-81
2022/03/30 10:17:23;;;;;;;7.47;4.93;;;;;;;7.85;56.62;99882.50;5058293;28;20202;-81
2022/03/30 10:19:52;;;;;;;14.93;5.43;;;;;;;7.86;56.43;99915.41;5058893;28;20205;-80
2022/03/30 10:22:34;;;;;;;9.37;4.37;;;;;;;7.78;56.14;99925.06;5057177;28;20224;-81
2022/03/30 10:25:12;;;;;;;9.53;4.60;;;;;;;7.81;57.31;99912.00;5058685;28;20213;-81
2022/03/30 10:27:48;;;;;;;6.23;4.23;;;;;;;7.99;59.60;99853.66;5058707;28;20218;-81
2022/03/30 10:30:15;;;;;;;7.53;4.20;;;;;;;8.18;57.59;99859.41;5059293;28;20533;-81
2022/03/30 10:32:42;;;;;;;7.57;4.53;;;;;;;8.42;55.51;99897.13;5058880;28;20710;-80
2022/03/30 10:35:11;;;;;;;7.60;4.50;;;;;;;8.64;54.48;99939.19;5058659;28;20217;-81
2022/03/30 10:37:40;;;;;;;5.40;3.67;;;;;;;8.67;53.35;99970.38;5059109;28;20209;-80
2022/03/30 10:40:17;;;;;;;6.50;3.80;;;;;;;8.90;53.85;99996.81;5058762;28;20207;-80
2022/03/30 10:43:07;;;;;;;6.23;3.37;;;;;;;9.07;53.44;100008.63;5050493;28;20235;-80
2022/03/30 10:45:41;;;;;;;8.03;3.37;;;;;;;9.21;53.23;100006.59;5057926;28;20222;-80
2022/03/30 10:48:14;;;;;;;5.63;3.40;;;;;;;9.23;52.60;100030.00;5058437;28;20206;-81
2022/03/30 10:50:43;;;;;;;5.47;3.30;;;;;;;9.26;52.76;100041.25;5058432;28;20238;-81
2022/03/30 10:53:35;;;;;;;10.60;4.10;;;;;;;9.46;52.20;100025.19;5057752;28;20211;-80
2022/03/30 10:56:30;;;;;;;5.27;3.80;;;;;;;9.58;51.80;100051.88;5058394;28;20294;-80
2022/03/30 10:59:14;;;;;;;7.67;4.53;;;;;;;9.64;51.83;100051.75;5058760;28;20227;-81
2022/03/30 11:01:46;;;;;;;7.23;4.67;;;;;;;9.69;51.99;100050.78;5058313;28;20236;-81
2022/03/30 11:04:19;;;;;;;9.17;4.90;;;;;;;9.62;52.46;100049.19;5058207;28;20216;-80
2022/03/30 11:06:47;;;;;;;9.87;4.67;;;;;;;9.78;51.73;100038.44;5059623;28;20216;-81
2022/03/30 11:09:23;;;;;;;7.23;3.53;;;;;;;9.87;51.28;100079.91;5058410;28;20275;-81
2022/03/30 11:12:02;;;;;;;9.70;3.97;;;;;;;9.88;51.31;100092.91;5043352;28;20224;-80
2022/03/30 11:14:32;;;;;;;6.93;4.53;;;;;;;9.98;50.07;100100.56;5057213;28;20267;-80
2022/03/30 11:17:00;;;;;;;7.33;4.03;;;;;;;10.01;50.26;100110.91;5058832;28;20323;-81
2022/03/30 11:19:31;;;;;;;6.73;4.50;;;;;;;10.17;50.09;100111.41;5057105;28;20302;-81
2022/03/30 11:22:09;;;;;;;8.87;4.53;;;;;;;10.38;50.65;100102.28;5068125;28;20297;-80
2022/03/30 11:24:37;;;;;;;8.90;4.80;;;;;;;10.67;49.80;100107.66;5077800;28;20189;-79
2022/03/30 11:27:23;;;;;;;6.97;4.70;;;;;;;10.99;48.68;100179.09;5075131;28;20201;-80
2022/03/30 11:30:09;;;;;;;9.40;4.47;;;;;;;11.10;47.64;100221.50;5078235;28;20227;-80
2022/03/30 11:32:56;;;;;;;5.87;5.10;;;;;;;11.27;46.89;100264.63;5058769;28;20240;-81
2022/03/30 11:35:26;;;;;;;7.93;4.73;;;;;;;11.37;46.64;100288.78;5058039;28;20207;-80
2022/03/30 11:38:11;;;;;;;6.10;5.43;;;;;;;11.58;46.73;100272.56;5058863;28;20208;-81
2022/03/30 11:40:40;;;;;;;8.97;5.50;;;;;;;11.87;45.80;100310.16;5058349;28;20576;-80
2022/03/30 11:43:10;;;;;;;7.80;6.00;;;;;;;12.69;44.30;100342.84;5058605;28;20225;-81
2022/03/30 11:45:37;;;;;;;7.20;6.03;;;;;;;13.63;42.92;100421.25;5058081;28;20224;-81
2022/03/30 11:48:06;;;;;;;8.83;6.17;;;;;;;14.47;40.76;100512.13;5058396;28;20241;-82